sensor_id;sensor_type;location;lat;lon;timestamp;P1;durP1;ratioP1;P2;durP2;ratioP2
46230;SDS011;31949;51.404;-0.038;2023-02-18T00:01:14;3.63;;;2.67;;
46230;SDS011;31949;51.404;-0.038;2023-02-18T00:03:43;4.45;;;2.97;;
46230;SDS011;31949;51.404;-0.038;2023-02-18T00:06:11;3.03;;;2.28;;
46230;SDS011;31949;51.404;-0.038;2023-02-18T00:08:43;3.63;;;2.60;;
46230;SDS011;31949;51.404;-0.038;2023-02-18T00:11:11;3.25;;;2.38;;
46230;SDS011;31949;51.404;-0.038;2023-02-18T00:13:40;3.15;;;2.42;;
46230;SDS011;31949;51.404;-0.038;2023-02-18T00:16:08;2.72;;;2.45;;
46230;SDS011;31949;51.404;-0.038;2023-02-18T00:18:38;5.78;;;2.60;;
46230;SDS011;31949;51.404;-0.038;2023-02-18T00:21:06;4.05;;;2.25;;
46230;SDS011;31949;51.404;-0.038;2023-02-18T00:23:34;3.53;;;2.25;;
46230;SDS011;31949;51.404;-0.038;2023-02-18T00:26:09;3.85;;;2.30;;
46230;SDS011;31949;51.404;-0.038;2023-02-18T00:28:39;3.53;;;2.55;;
46230;SDS011;31949;51.404;-0.038;2023-02-18T00:33:36;2.63;;;2.10;;
46230;SDS011;31949;51.404;-0.038;2023-02-18T00:36:04;3.38;;;2.50;;
46230;SDS011;31949;51.404;-0.038;2023-02-18T00:38:34;4.67;;;3.10;;
46230;SDS011;31949;51.404;-0.038;2023-02-18T00:41:02;3.72;;;2.05;;
46230;SDS011;31949;51.404;-0.038;2023-02-18T00:43:30;4.38;;;2.75;;
46230;SDS011;31949;51.404;-0.038;2023-02-18T00:45:57;2.17;;;1.85;;
46230;SDS011;31949;51.404;-0.038;2023-02-18T00:48:25;4.50;;;2.97;;
46230;SDS011;31949;51.404;-0.038;2023-02-18T00:50:52;4.97;;;2.33;;
46230;SDS011;31949;51.404;-0.038;2023-02-18T00:53:21;2.78;;;1.98;;
46230;SDS011;31949;51.404;-0.038;2023-02-18T00:55:49;3.45;;;2.00;;
46230;SDS011;31949;51.404;-0.038;2023-02-18T00:58:16;4.03;;;1.90;;
46230;SDS011;31949;51.404;-0.038;2023-02-18T01:00:43;3.28;;;2.30;;
46230;SDS011;31949;51.404;-0.038;2023-02-18T01:03:11;2.92;;;2.22;;
46230;SDS011;31949;51.404;-0.038;2023-02-18T01:05:38;2.97;;;2.35;;
46230;SDS011;31949;51.404;-0.038;2023-02-18T01:08:07;2.88;;;2.22;;
46230;SDS011;31949;51.404;-0.038;2023-02-18T01:10:39;3.38;;;2.47;;
46230;SDS011;31949;51.404;-0.038;2023-02-18T01:13:07;4.00;;;1.93;;
46230;SDS011;31949;51.404;-0.038;2023-02-18T01:15:35;2.38;;;1.90;;
46230;SDS011;31949;51.404;-0.038;2023-02-18T01:18:02;3.40;;;1.58;;
46230;SDS011;31949;51.404;-0.038;2023-02-18T01:20:33;4.35;;;2.35;;
46230;SDS011;31949;51.404;-0.038;2023-02-18T01:23:02;2.25;;;2.00;;
46230;SDS011;31949;51.404;-0.038;2023-02-18T01:25:30;3.70;;;2.20;;
46230;SDS011;31949;51.404;-0.038;2023-02-18T01:27:59;2.40;;;1.70;;
46230;SDS011;31949;51.404;-0.038;2023-02-18T01:30:27;1.65;;;1.50;;
46230;SDS011;31949;51.404;-0.038;2023-02-18T01:32:55;1.65;;;1.33;;
46230;SDS011;31949;51.404;-0.038;2023-02-18T01:35:22;2.10;;;1.73;;
46230;SDS011;31949;51.404;-0.038;2023-02-18T01:37:50;2.15;;;0.93;;
46230;SDS011;31949;51.404;-0.038;2023-02-18T01:40:19;2.25;;;1.00;;
46230;SDS011;31949;51.404;-0.038;2023-02-18T01:42:49;1.38;;;1.00;;
46230;SDS011;31949;51.404;-0.038;2023-02-18T01:48:09;1.98;;;1.13;;
46230;SDS011;31949;51.404;-0.038;2023-02-18T01:50:40;1.63;;;0.90;;
46230;SDS011;31949;51.404;-0.038;2023-02-18T01:53:21;2.78;;;0.90;;
46230;SDS011;31949;51.404;-0.038;2023-02-18T01:55:54;1.05;;;0.95;;
46230;SDS011;31949;51.404;-0.038;2023-02-18T01:58:24;1.08;;;0.98;;
46230;SDS011;31949;51.404;-0.038;2023-02-18T02:00:51;1.95;;;0.70;;
46230;SDS011;31949;51.404;-0.038;2023-02-18T02:03:18;0.70;;;0.70;;
46230;SDS011;31949;51.404;-0.038;2023-02-18T02:05:45;1.95;;;0.70;;
46230;SDS011;31949;51.404;-0.038;2023-02-18T02:08:14;1.35;;;0.80;;
46230;SDS011;31949;51.404;-0.038;2023-02-18T02:13:28;1.65;;;0.70;;
46230;SDS011;31949;51.404;-0.038;2023-02-18T02:16:10;0.85;;;0.80;;
46230;SDS011;31949;51.404;-0.038;2023-02-18T02:18:59;1.05;;;0.80;;
46230;SDS011;31949;51.404;-0.038;2023-02-18T02:24:56;1.90;;;1.38;;
46230;SDS011;31949;51.404;-0.038;2023-02-18T02:27:40;1.60;;;0.90;;
46230;SDS011;31949;51.404;-0.038;2023-02-18T02:30:31;0.95;;;0.73;;
46230;SDS011;31949;51.404;-0.038;2023-02-18T02:38:33;0.32;;;0.30;;
46230;SDS011;31949;51.404;-0.038;2023-02-18T02:41:13;1.05;;;0.50;;
46230;SDS011;31949;51.404;-0.038;2023-02-18T02:43:55;2.58;;;0.38;;
46230;SDS011;31949;51.404;-0.038;2023-02-18T02:46:40;1.25;;;0.47;;
46230;SDS011;31949;51.404;-0.038;2023-02-18T02:49:24;2.88;;;1.08;;
46230;SDS011;31949;51.404;-0.038;2023-02-18T02:55:13;1.75;;;0.75;;
46230;SDS011;31949;51.404;-0.038;2023-02-18T02:57:50;0.75;;;0.40;;
46230;SDS011;31949;51.404;-0.038;2023-02-18T03:00:31;1.52;;;0.65;;
46230;SDS011;31949;51.404;-0.038;2023-02-18T03:08:35;2.30;;;0.63;;
46230;SDS011;31949;51.404;-0.038;2023-02-18T03:11:13;3.30;;;0.90;;
46230;SDS011;31949;51.404;-0.038;2023-02-18T03:19:23;4.13;;;0.63;;
46230;SDS011;31949;51.404;-0.038;2023-02-18T03:24:47;2.08;;;0.65;;
46230;SDS011;31949;51.404;-0.038;2023-02-18T03:27:19;3.92;;;1.15;;
46230;SDS011;31949;51.404;-0.038;2023-02-18T03:30:13;2.85;;;0.80;;
46230;SDS011;31949;51.404;-0.038;2023-02-18T03:32:48;2.35;;;0.90;;
46230;SDS011;31949;51.404;-0.038;2023-02-18T03:35:19;3.97;;;0.90;;
46230;SDS011;31949;51.404;-0.038;2023-02-18T03:37:49;1.73;;;0.65;;
46230;SDS011;31949;51.404;-0.038;2023-02-18T03:40:20;3.33;;;0.80;;
46230;SDS011;31949;51.404;-0.038;2023-02-18T03:42:48;4.88;;;1.20;;
46230;SDS011;31949;51.404;-0.038;2023-02-18T03:45:15;4.93;;;1.08;;
46230;SDS011;31949;51.404;-0.038;2023-02-18T03:47:42;3.70;;;0.73;;
46230;SDS011;31949;51.404;-0.038;2023-02-18T03:50:13;11.38;;;1.23;;
46230;SDS011;31949;51.404;-0.038;2023-02-18T03:52:41;4.93;;;0.90;;
46230;SDS011;31949;51.404;-0.038;2023-02-18T03:55:08;2.05;;;0.68;;
46230;SDS011;31949;51.404;-0.038;2023-02-18T03:57:36;4.22;;;1.00;;
46230;SDS011;31949;51.404;-0.038;2023-02-18T04:00:04;5.40;;;1.63;;
46230;SDS011;31949;51.404;-0.038;2023-02-18T04:02:38;7.75;;;1.45;;
46230;SDS011;31949;51.404;-0.038;2023-02-18T04:05:06;2.15;;;0.90;;
46230;SDS011;31949;51.404;-0.038;2023-02-18T04:07:34;6.60;;;1.30;;
46230;SDS011;31949;51.404;-0.038;2023-02-18T04:10:01;3.08;;;1.02;;
46230;SDS011;31949;51.404;-0.038;2023-02-18T04:12:29;4.32;;;1.02;;
46230;SDS011;31949;51.404;-0.038;2023-02-18T04:14:56;4.78;;;1.27;;
46230;SDS011;31949;51.404;-0.038;2023-02-18T04:17:23;3.85;;;0.98;;
46230;SDS011;31949;51.404;-0.038;2023-02-18T04:19:51;2.90;;;0.60;;
46230;SDS011;31949;51.404;-0.038;2023-02-18T04:22:18;3.63;;;0.70;;
46230;SDS011;31949;51.404;-0.038;2023-02-18T04:24:45;2.75;;;0.70;;
46230;SDS011;31949;51.404;-0.038;2023-02-18T04:27:12;3.53;;;0.63;;
46230;SDS011;31949;51.404;-0.038;2023-02-18T04:29:41;6.22;;;1.13;;
46230;SDS011;31949;51.404;-0.038;2023-02-18T04:32:08;7.28;;;1.48;;
46230;SDS011;31949;51.404;-0.038;2023-02-18T04:34:35;4.18;;;1.00;;
46230;SDS011;31949;51.404;-0.038;2023-02-18T04:37:03;4.13;;;0.70;;
46230;SDS011;31949;51.404;-0.038;2023-02-18T04:39:30;3.53;;;1.10;;
46230;SDS011;31949;51.404;-0.038;2023-02-18T04:41:57;3.55;;;1.15;;
46230;SDS011;31949;51.404;-0.038;2023-02-18T04:44:24;1.40;;;0.55;;
46230;SDS011;31949;51.404;-0.038;2023-02-18T04:46:51;3.03;;;0.60;;
46230;SDS011;31949;51.404;-0.038;2023-02-18T04:49:19;2.92;;;0.50;;
46230;SDS011;31949;51.404;-0.038;2023-02-18T04:51:46;1.77;;;0.85;;
46230;SDS011;31949;51.404;-0.038;2023-02-18T04:54:13;2.40;;;0.65;;
46230;SDS011;31949;51.404;-0.038;2023-02-18T04:56:40;3.35;;;0.50;;
46230;SDS011;31949;51.404;-0.038;2023-02-18T04:59:07;4.35;;;0.85;;
46230;SDS011;31949;51.404;-0.038;2023-02-18T05:01:35;2.78;;;0.68;;
46230;SDS011;31949;51.404;-0.038;2023-02-18T05:04:02;3.08;;;0.65;;
46230;SDS011;31949;51.404;-0.038;2023-02-18T05:06:30;3.10;;;0.98;;
46230;SDS011;31949;51.404;-0.038;2023-02-18T05:08:57;2.97;;;0.65;;
46230;SDS011;31949;51.404;-0.038;2023-02-18T05:11:24;3.17;;;0.98;;
46230;SDS011;31949;51.404;-0.038;2023-02-18T05:13:51;4.32;;;0.80;;
46230;SDS011;31949;51.404;-0.038;2023-02-18T05:16:18;5.50;;;0.70;;
46230;SDS011;31949;51.404;-0.038;2023-02-18T05:18:45;6.78;;;0.63;;
46230;SDS011;31949;51.404;-0.038;2023-02-18T05:21:13;5.95;;;0.90;;
46230;SDS011;31949;51.404;-0.038;2023-02-18T05:23:40;2.70;;;1.08;;
46230;SDS011;31949;51.404;-0.038;2023-02-18T05:26:07;5.72;;;0.88;;
46230;SDS011;31949;51.404;-0.038;2023-02-18T05:28:35;3.53;;;0.70;;
46230;SDS011;31949;51.404;-0.038;2023-02-18T05:31:02;3.83;;;0.50;;
46230;SDS011;31949;51.404;-0.038;2023-02-18T05:33:30;5.35;;;1.02;;
46230;SDS011;31949;51.404;-0.038;2023-02-18T05:35:57;2.08;;;0.50;;
46230;SDS011;31949;51.404;-0.038;2023-02-18T05:38:24;4.70;;;0.80;;
46230;SDS011;31949;51.404;-0.038;2023-02-18T05:40:51;2.47;;;0.50;;
46230;SDS011;31949;51.404;-0.038;2023-02-18T05:43:19;7.32;;;1.35;;
46230;SDS011;31949;51.404;-0.038;2023-02-18T05:45:46;3.65;;;0.52;;
46230;SDS011;31949;51.404;-0.038;2023-02-18T05:48:13;1.75;;;0.52;;
46230;SDS011;31949;51.404;-0.038;2023-02-18T05:50:40;0.80;;;0.30;;
46230;SDS011;31949;51.404;-0.038;2023-02-18T05:53:08;6.80;;;1.25;;
46230;SDS011;31949;51.404;-0.038;2023-02-18T05:55:35;1.70;;;0.80;;
46230;SDS011;31949;51.404;-0.038;2023-02-18T05:58:05;1.73;;;0.43;;
46230;SDS011;31949;51.404;-0.038;2023-02-18T06:00:32;1.83;;;0.65;;
46230;SDS011;31949;51.404;-0.038;2023-02-18T06:02:59;3.40;;;0.45;;
46230;SDS011;31949;51.404;-0.038;2023-02-18T06:05:27;1.65;;;0.40;;
46230;SDS011;31949;51.404;-0.038;2023-02-18T06:07:54;2.63;;;0.47;;
46230;SDS011;31949;51.404;-0.038;2023-02-18T06:10:22;2.67;;;1.10;;
46230;SDS011;31949;51.404;-0.038;2023-02-18T06:12:49;1.65;;;0.77;;
46230;SDS011;31949;51.404;-0.038;2023-02-18T06:15:16;2.75;;;0.50;;
46230;SDS011;31949;51.404;-0.038;2023-02-18T06:17:44;2.58;;;0.65;;
46230;SDS011;31949;51.404;-0.038;2023-02-18T06:20:11;3.92;;;0.32;;
46230;SDS011;31949;51.404;-0.038;2023-02-18T06:22:38;1.75;;;0.38;;
46230;SDS011;31949;51.404;-0.038;2023-02-18T06:25:05;2.33;;;0.75;;
46230;SDS011;31949;51.404;-0.038;2023-02-18T06:27:33;1.63;;;0.47;;
46230;SDS011;31949;51.404;-0.038;2023-02-18T06:30:00;3.72;;;0.70;;
46230;SDS011;31949;51.404;-0.038;2023-02-18T06:32:28;1.02;;;0.40;;
46230;SDS011;31949;51.404;-0.038;2023-02-18T06:34:55;2.63;;;0.85;;
46230;SDS011;31949;51.404;-0.038;2023-02-18T06:37:22;4.82;;;0.85;;
46230;SDS011;31949;51.404;-0.038;2023-02-18T06:39:49;2.25;;;0.43;;
46230;SDS011;31949;51.404;-0.038;2023-02-18T06:42:17;4.03;;;0.90;;
46230;SDS011;31949;51.404;-0.038;2023-02-18T06:44:44;2.72;;;0.50;;
46230;SDS011;31949;51.404;-0.038;2023-02-18T06:47:11;1.75;;;0.50;;
46230;SDS011;31949;51.404;-0.038;2023-02-18T06:49:38;1.10;;;0.40;;
46230;SDS011;31949;51.404;-0.038;2023-02-18T06:52:06;4.40;;;0.73;;
46230;SDS011;31949;51.404;-0.038;2023-02-18T06:54:33;1.70;;;0.40;;
46230;SDS011;31949;51.404;-0.038;2023-02-18T06:57:00;1.15;;;0.40;;
46230;SDS011;31949;51.404;-0.038;2023-02-18T06:59:27;2.38;;;0.60;;
46230;SDS011;31949;51.404;-0.038;2023-02-18T07:01:55;2.80;;;0.40;;
46230;SDS011;31949;51.404;-0.038;2023-02-18T07:04:22;1.55;;;0.38;;
46230;SDS011;31949;51.404;-0.038;2023-02-18T07:06:49;1.75;;;0.60;;
46230;SDS011;31949;51.404;-0.038;2023-02-18T07:09:16;1.67;;;0.43;;
46230;SDS011;31949;51.404;-0.038;2023-02-18T07:11:43;1.95;;;0.40;;
46230;SDS011;31949;51.404;-0.038;2023-02-18T07:14:11;3.45;;;0.50;;
46230;SDS011;31949;51.404;-0.038;2023-02-18T07:16:38;6.20;;;1.52;;
46230;SDS011;31949;51.404;-0.038;2023-02-18T07:19:05;1.83;;;0.63;;
46230;SDS011;31949;51.404;-0.038;2023-02-18T07:21:32;6.78;;;0.82;;
46230;SDS011;31949;51.404;-0.038;2023-02-18T07:23:59;5.63;;;0.70;;
46230;SDS011;31949;51.404;-0.038;2023-02-18T07:26:27;3.30;;;0.85;;
46230;SDS011;31949;51.404;-0.038;2023-02-18T07:28:54;2.30;;;0.60;;
46230;SDS011;31949;51.404;-0.038;2023-02-18T07:31:21;2.58;;;0.50;;
46230;SDS011;31949;51.404;-0.038;2023-02-18T07:33:49;1.23;;;0.43;;
46230;SDS011;31949;51.404;-0.038;2023-02-18T07:36:16;1.70;;;0.40;;
46230;SDS011;31949;51.404;-0.038;2023-02-18T07:38:43;3.22;;;0.80;;
46230;SDS011;31949;51.404;-0.038;2023-02-18T07:41:15;1.92;;;0.65;;
46230;SDS011;31949;51.404;-0.038;2023-02-18T07:43:45;3.25;;;0.75;;
46230;SDS011;31949;51.404;-0.038;2023-02-18T07:46:12;1.23;;;0.50;;
46230;SDS011;31949;51.404;-0.038;2023-02-18T07:48:39;3.88;;;0.88;;
46230;SDS011;31949;51.404;-0.038;2023-02-18T07:51:07;2.35;;;0.65;;
46230;SDS011;31949;51.404;-0.038;2023-02-18T07:53:37;2.38;;;0.43;;
46230;SDS011;31949;51.404;-0.038;2023-02-18T07:56:04;9.50;;;0.98;;
46230;SDS011;31949;51.404;-0.038;2023-02-18T07:58:33;3.75;;;0.98;;
46230;SDS011;31949;51.404;-0.038;2023-02-18T08:01:07;4.75;;;0.82;;
46230;SDS011;31949;51.404;-0.038;2023-02-18T08:03:37;1.95;;;0.50;;
46230;SDS011;31949;51.404;-0.038;2023-02-18T08:06:04;2.53;;;0.70;;
46230;SDS011;31949;51.404;-0.038;2023-02-18T08:08:33;4.28;;;0.90;;
46230;SDS011;31949;51.404;-0.038;2023-02-18T08:11:03;3.47;;;0.77;;
46230;SDS011;31949;51.404;-0.038;2023-02-18T08:13:44;2.40;;;0.50;;
46230;SDS011;31949;51.404;-0.038;2023-02-18T08:16:13;2.88;;;0.80;;
46230;SDS011;31949;51.404;-0.038;2023-02-18T08:18:42;3.92;;;0.70;;
46230;SDS011;31949;51.404;-0.038;2023-02-18T08:21:10;1.20;;;0.68;;
46230;SDS011;31949;51.404;-0.038;2023-02-18T08:23:37;1.85;;;0.47;;
46230;SDS011;31949;51.404;-0.038;2023-02-18T08:26:05;3.13;;;0.40;;
46230;SDS011;31949;51.404;-0.038;2023-02-18T08:28:40;3.25;;;0.57;;
46230;SDS011;31949;51.404;-0.038;2023-02-18T08:31:16;2.72;;;0.90;;
46230;SDS011;31949;51.404;-0.038;2023-02-18T08:33:45;2.85;;;0.50;;
46230;SDS011;31949;51.404;-0.038;2023-02-18T08:36:13;5.32;;;1.15;;
46230;SDS011;31949;51.404;-0.038;2023-02-18T08:38:40;2.00;;;0.60;;
46230;SDS011;31949;51.404;-0.038;2023-02-18T08:41:08;4.03;;;1.33;;
46230;SDS011;31949;51.404;-0.038;2023-02-18T08:43:36;3.38;;;0.63;;
46230;SDS011;31949;51.404;-0.038;2023-02-18T08:46:03;3.55;;;0.80;;
46230;SDS011;31949;51.404;-0.038;2023-02-18T08:48:30;3.42;;;0.38;;
46230;SDS011;31949;51.404;-0.038;2023-02-18T08:50:58;3.30;;;0.60;;
46230;SDS011;31949;51.404;-0.038;2023-02-18T08:53:25;2.63;;;0.88;;
46230;SDS011;31949;51.404;-0.038;2023-02-18T08:55:53;2.30;;;0.43;;
46230;SDS011;31949;51.404;-0.038;2023-02-18T08:58:20;1.33;;;0.30;;
46230;SDS011;31949;51.404;-0.038;2023-02-18T09:00:47;3.22;;;0.88;;
46230;SDS011;31949;51.404;-0.038;2023-02-18T09:03:14;1.52;;;0.77;;
46230;SDS011;31949;51.404;-0.038;2023-02-18T09:05:42;1.20;;;0.57;;
46230;SDS011;31949;51.404;-0.038;2023-02-18T09:08:09;3.92;;;0.85;;
46230;SDS011;31949;51.404;-0.038;2023-02-18T09:10:36;2.25;;;0.93;;
46230;SDS011;31949;51.404;-0.038;2023-02-18T09:13:04;3.13;;;0.85;;
46230;SDS011;31949;51.404;-0.038;2023-02-18T09:15:32;3.28;;;1.25;;
46230;SDS011;31949;51.404;-0.038;2023-02-18T09:17:59;1.95;;;0.50;;
46230;SDS011;31949;51.404;-0.038;2023-02-18T09:20:26;4.85;;;0.75;;
46230;SDS011;31949;51.404;-0.038;2023-02-18T09:22:54;5.57;;;0.77;;
46230;SDS011;31949;51.404;-0.038;2023-02-18T09:25:21;5.25;;;1.00;;
46230;SDS011;31949;51.404;-0.038;2023-02-18T09:27:48;1.83;;;0.75;;
46230;SDS011;31949;51.404;-0.038;2023-02-18T09:30:16;2.15;;;0.77;;
46230;SDS011;31949;51.404;-0.038;2023-02-18T09:32:43;1.50;;;0.40;;
46230;SDS011;31949;51.404;-0.038;2023-02-18T09:35:10;2.13;;;0.60;;
46230;SDS011;31949;51.404;-0.038;2023-02-18T09:37:37;3.85;;;0.80;;
46230;SDS011;31949;51.404;-0.038;2023-02-18T09:40:06;3.95;;;0.80;;
46230;SDS011;31949;51.404;-0.038;2023-02-18T09:42:40;1.35;;;0.50;;
46230;SDS011;31949;51.404;-0.038;2023-02-18T09:45:09;2.03;;;0.57;;
46230;SDS011;31949;51.404;-0.038;2023-02-18T09:47:39;1.42;;;0.50;;
46230;SDS011;31949;51.404;-0.038;2023-02-18T09:50:13;2.30;;;0.60;;
46230;SDS011;31949;51.404;-0.038;2023-02-18T09:52:44;2.75;;;0.55;;
46230;SDS011;31949;51.404;-0.038;2023-02-18T09:55:22;2.17;;;0.75;;
46230;SDS011;31949;51.404;-0.038;2023-02-18T09:57:53;3.00;;;0.70;;
46230;SDS011;31949;51.404;-0.038;2023-02-18T10:00:31;3.70;;;0.60;;
46230;SDS011;31949;51.404;-0.038;2023-02-18T10:03:02;2.17;;;0.60;;
46230;SDS011;31949;51.404;-0.038;2023-02-18T10:05:32;2.75;;;0.88;;
46230;SDS011;31949;51.404;-0.038;2023-02-18T10:08:03;4.70;;;1.33;;
46230;SDS011;31949;51.404;-0.038;2023-02-18T10:10:45;2.17;;;0.90;;
46230;SDS011;31949;51.404;-0.038;2023-02-18T10:13:14;2.05;;;0.55;;
46230;SDS011;31949;51.404;-0.038;2023-02-18T10:15:46;3.80;;;0.50;;
46230;SDS011;31949;51.404;-0.038;2023-02-18T10:18:25;3.67;;;1.27;;
46230;SDS011;31949;51.404;-0.038;2023-02-18T10:21:20;5.65;;;1.23;;
46230;SDS011;31949;51.404;-0.038;2023-02-18T10:24:00;3.92;;;1.05;;
46230;SDS011;31949;51.404;-0.038;2023-02-18T10:26:46;3.40;;;0.88;;
46230;SDS011;31949;51.404;-0.038;2023-02-18T10:29:16;2.95;;;0.65;;
46230;SDS011;31949;51.404;-0.038;2023-02-18T10:32:35;1.45;;;0.60;;
46230;SDS011;31949;51.404;-0.038;2023-02-18T10:35:02;6.53;;;1.05;;
46230;SDS011;31949;51.404;-0.038;2023-02-18T10:49:15;2.53;;;0.65;;
46230;SDS011;31949;51.404;-0.038;2023-02-18T10:52:01;1.63;;;0.43;;
46230;SDS011;31949;51.404;-0.038;2023-02-18T10:54:47;2.70;;;0.60;;
46230;SDS011;31949;51.404;-0.038;2023-02-18T10:57:20;2.47;;;0.60;;
46230;SDS011;31949;51.404;-0.038;2023-02-18T10:59:59;1.77;;;0.60;;
46230;SDS011;31949;51.404;-0.038;2023-02-18T11:02:38;7.55;;;0.70;;
46230;SDS011;31949;51.404;-0.038;2023-02-18T11:05:17;1.08;;;0.70;;
46230;SDS011;31949;51.404;-0.038;2023-02-18T11:07:50;4.20;;;0.75;;
46230;SDS011;31949;51.404;-0.038;2023-02-18T11:10:26;3.00;;;0.50;;
46230;SDS011;31949;51.404;-0.038;2023-02-18T11:13:01;3.22;;;0.70;;
46230;SDS011;31949;51.404;-0.038;2023-02-18T11:15:31;5.15;;;0.73;;
46230;SDS011;31949;51.404;-0.038;2023-02-18T11:18:12;3.67;;;0.95;;
46230;SDS011;31949;51.404;-0.038;2023-02-18T11:20:59;2.60;;;0.70;;
46230;SDS011;31949;51.404;-0.038;2023-02-18T11:23:28;1.10;;;0.60;;
46230;SDS011;31949;51.404;-0.038;2023-02-18T11:26:03;0.88;;;0.35;;
46230;SDS011;31949;51.404;-0.038;2023-02-18T11:28:40;2.15;;;0.70;;
46230;SDS011;31949;51.404;-0.038;2023-02-18T11:31:17;2.08;;;0.50;;
46230;SDS011;31949;51.404;-0.038;2023-02-18T11:33:49;1.23;;;0.43;;
46230;SDS011;31949;51.404;-0.038;2023-02-18T11:36:21;2.83;;;0.77;;
46230;SDS011;31949;51.404;-0.038;2023-02-18T11:41:57;2.90;;;0.75;;
46230;SDS011;31949;51.404;-0.038;2023-02-18T11:44:31;1.45;;;1.00;;
46230;SDS011;31949;51.404;-0.038;2023-02-18T11:47:03;2.08;;;1.17;;
46230;SDS011;31949;51.404;-0.038;2023-02-18T11:49:32;1.90;;;0.65;;
46230;SDS011;31949;51.404;-0.038;2023-02-18T11:52:02;2.85;;;0.60;;
46230;SDS011;31949;51.404;-0.038;2023-02-18T11:54:31;2.30;;;0.73;;
46230;SDS011;31949;51.404;-0.038;2023-02-18T11:57:02;6.90;;;1.00;;
46230;SDS011;31949;51.404;-0.038;2023-02-18T11:59:32;3.40;;;1.35;;
46230;SDS011;31949;51.404;-0.038;2023-02-18T12:04:39;2.88;;;2.03;;
46230;SDS011;31949;51.404;-0.038;2023-02-18T12:09:47;3.83;;;0.45;;
46230;SDS011;31949;51.404;-0.038;2023-02-18T12:12:25;1.65;;;0.50;;
46230;SDS011;31949;51.404;-0.038;2023-02-18T12:14:54;2.83;;;0.70;;
46230;SDS011;31949;51.404;-0.038;2023-02-18T12:17:39;1.85;;;0.65;;
46230;SDS011;31949;51.404;-0.038;2023-02-18T12:23:21;2.15;;;0.40;;
46230;SDS011;31949;51.404;-0.038;2023-02-18T12:26:06;1.05;;;0.68;;
46230;SDS011;31949;51.404;-0.038;2023-02-18T12:34:32;1.75;;;0.52;;
46230;SDS011;31949;51.404;-0.038;2023-02-18T12:38:11;2.22;;;0.40;;
46230;SDS011;31949;51.404;-0.038;2023-02-18T12:45:24;2.65;;;0.43;;
46230;SDS011;31949;51.404;-0.038;2023-02-18T13:02:20;4.28;;;0.60;;
46230;SDS011;31949;51.404;-0.038;2023-02-18T13:05:46;1.52;;;0.68;;
46230;SDS011;31949;51.404;-0.038;2023-02-18T13:13:33;1.08;;;0.60;;
46230;SDS011;31949;51.404;-0.038;2023-02-18T13:16:17;1.08;;;0.80;;
46230;SDS011;31949;51.404;-0.038;2023-02-18T13:18:50;0.70;;;0.50;;
46230;SDS011;31949;51.404;-0.038;2023-02-18T13:21:20;1.30;;;0.55;;
46230;SDS011;31949;51.404;-0.038;2023-02-18T13:23:52;3.15;;;0.77;;
46230;SDS011;31949;51.404;-0.038;2023-02-18T13:26:23;0.55;;;0.50;;
46230;SDS011;31949;51.404;-0.038;2023-02-18T13:29:07;1.80;;;0.80;;
46230;SDS011;31949;51.404;-0.038;2023-02-18T13:31:56;0.63;;;0.63;;
46230;SDS011;31949;51.404;-0.038;2023-02-18T13:39:59;4.75;;;0.98;;
46230;SDS011;31949;51.404;-0.038;2023-02-18T13:47:44;1.75;;;1.10;;
46230;SDS011;31949;51.404;-0.038;2023-02-18T13:55:34;3.83;;;1.27;;
46230;SDS011;31949;51.404;-0.038;2023-02-18T13:58:13;1.40;;;0.90;;
46230;SDS011;31949;51.404;-0.038;2023-02-18T14:00:47;1.95;;;1.23;;
46230;SDS011;31949;51.404;-0.038;2023-02-18T14:03:33;1.65;;;0.95;;
46230;SDS011;31949;51.404;-0.038;2023-02-18T14:08:38;1.63;;;1.00;;
46230;SDS011;31949;51.404;-0.038;2023-02-18T14:16:20;1.95;;;0.75;;
46230;SDS011;31949;51.404;-0.038;2023-02-18T14:18:54;1.77;;;0.80;;
46230;SDS011;31949;51.404;-0.038;2023-02-18T14:21:38;0.80;;;0.50;;
46230;SDS011;31949;51.404;-0.038;2023-02-18T14:24:08;0.73;;;0.50;;
46230;SDS011;31949;51.404;-0.038;2023-02-18T14:26:44;1.23;;;0.95;;
46230;SDS011;31949;51.404;-0.038;2023-02-18T14:31:52;2.13;;;0.95;;
46230;SDS011;31949;51.404;-0.038;2023-02-18T14:39:59;0.70;;;0.60;;
46230;SDS011;31949;51.404;-0.038;2023-02-18T14:43:21;1.08;;;0.65;;
46230;SDS011;31949;51.404;-0.038;2023-02-18T14:51:42;1.00;;;0.80;;
46230;SDS011;31949;51.404;-0.038;2023-02-18T14:54:16;1.65;;;0.98;;
46230;SDS011;31949;51.404;-0.038;2023-02-18T14:59:23;1.73;;;0.95;;
46230;SDS011;31949;51.404;-0.038;2023-02-18T15:01:54;2.45;;;1.27;;
46230;SDS011;31949;51.404;-0.038;2023-02-18T15:04:23;1.00;;;0.85;;
46230;SDS011;31949;51.404;-0.038;2023-02-18T15:07:01;2.50;;;1.25;;
46230;SDS011;31949;51.404;-0.038;2023-02-18T15:09:31;1.25;;;0.80;;
46230;SDS011;31949;51.404;-0.038;2023-02-18T15:12:00;1.63;;;1.42;;
46230;SDS011;31949;51.404;-0.038;2023-02-18T15:14:39;2.88;;;1.00;;
46230;SDS011;31949;51.404;-0.038;2023-02-18T15:17:15;1.35;;;1.00;;
46230;SDS011;31949;51.404;-0.038;2023-02-18T15:19:55;1.45;;;1.10;;
46230;SDS011;31949;51.404;-0.038;2023-02-18T15:22:32;2.15;;;1.15;;
46230;SDS011;31949;51.404;-0.038;2023-02-18T15:25:01;1.15;;;0.75;;
46230;SDS011;31949;51.404;-0.038;2023-02-18T15:27:30;1.73;;;0.95;;
46230;SDS011;31949;51.404;-0.038;2023-02-18T15:30:12;1.70;;;0.70;;
46230;SDS011;31949;51.404;-0.038;2023-02-18T15:32:57;0.93;;;0.77;;
46230;SDS011;31949;51.404;-0.038;2023-02-18T15:35:31;0.68;;;0.50;;
46230;SDS011;31949;51.404;-0.038;2023-02-18T15:38:02;2.33;;;0.63;;
46230;SDS011;31949;51.404;-0.038;2023-02-18T15:40:30;2.17;;;1.10;;
46230;SDS011;31949;51.404;-0.038;2023-02-18T15:43:01;1.63;;;0.90;;
46230;SDS011;31949;51.404;-0.038;2023-02-18T15:45:32;1.48;;;1.30;;
46230;SDS011;31949;51.404;-0.038;2023-02-18T15:48:12;4.97;;;1.90;;
46230;SDS011;31949;51.404;-0.038;2023-02-18T15:50:54;4.22;;;1.67;;
46230;SDS011;31949;51.404;-0.038;2023-02-18T15:53:33;2.10;;;1.17;;
46230;SDS011;31949;51.404;-0.038;2023-02-18T15:58:35;1.25;;;0.80;;
46230;SDS011;31949;51.404;-0.038;2023-02-18T16:01:04;2.55;;;1.05;;
46230;SDS011;31949;51.404;-0.038;2023-02-18T16:06:16;1.45;;;0.98;;
46230;SDS011;31949;51.404;-0.038;2023-02-18T16:11:36;3.22;;;0.85;;
46230;SDS011;31949;51.404;-0.038;2023-02-18T16:14:19;1.30;;;1.00;;
46230;SDS011;31949;51.404;-0.038;2023-02-18T16:17:13;5.25;;;1.10;;
46230;SDS011;31949;51.404;-0.038;2023-02-18T16:19:50;1.10;;;0.77;;
46230;SDS011;31949;51.404;-0.038;2023-02-18T16:25:06;1.40;;;1.00;;
46230;SDS011;31949;51.404;-0.038;2023-02-18T16:30:26;2.72;;;1.00;;
46230;SDS011;31949;51.404;-0.038;2023-02-18T16:32:55;2.20;;;1.23;;
46230;SDS011;31949;51.404;-0.038;2023-02-18T16:35:25;2.08;;;0.90;;
46230;SDS011;31949;51.404;-0.038;2023-02-18T16:38:15;1.27;;;0.90;;
46230;SDS011;31949;51.404;-0.038;2023-02-18T16:40:48;2.30;;;0.90;;
46230;SDS011;31949;51.404;-0.038;2023-02-18T16:45:46;1.23;;;0.90;;
46230;SDS011;31949;51.404;-0.038;2023-02-18T16:48:25;1.55;;;0.55;;
46230;SDS011;31949;51.404;-0.038;2023-02-18T16:51:16;1.70;;;0.95;;
46230;SDS011;31949;51.404;-0.038;2023-02-18T16:53:47;1.67;;;0.90;;
46230;SDS011;31949;51.404;-0.038;2023-02-18T16:56:17;0.80;;;0.50;;
46230;SDS011;31949;51.404;-0.038;2023-02-18T17:01:20;1.05;;;0.43;;
46230;SDS011;31949;51.404;-0.038;2023-02-18T17:03:51;1.05;;;0.80;;
46230;SDS011;31949;51.404;-0.038;2023-02-18T17:06:19;2.00;;;0.90;;
46230;SDS011;31949;51.404;-0.038;2023-02-18T17:08:47;1.50;;;0.70;;
46230;SDS011;31949;51.404;-0.038;2023-02-18T17:11:19;2.00;;;0.88;;
46230;SDS011;31949;51.404;-0.038;2023-02-18T17:13:52;2.47;;;1.48;;
46230;SDS011;31949;51.404;-0.038;2023-02-18T17:16:20;1.65;;;1.10;;
46230;SDS011;31949;51.404;-0.038;2023-02-18T17:18:48;5.35;;;1.65;;
46230;SDS011;31949;51.404;-0.038;2023-02-18T17:21:20;2.05;;;1.00;;
46230;SDS011;31949;51.404;-0.038;2023-02-18T17:23:50;4.63;;;1.40;;
46230;SDS011;31949;51.404;-0.038;2023-02-18T17:26:19;1.90;;;1.25;;